Terminal Aerodrome Forecast
Issued by NWS Charleston, WV

Current Version | Previous Version | Text Only | Print | Product List | Glossary Off
Versions: 1 2 3 4 5 6 7 8 9 10 11 12 13 14 15 16 17 18 19 20 21 22 23 24 25 26

000
FTUS41 KRLX 221100
TAFEKN
TAF
KEKN 221125Z 2212/2312 00000KT 6SM -SHRA OVC080
     FM221300 25006KT P6SM OVC080
     FM221500 27010G16KT 5SM -SHRA OVC045
     FM221700 27011G20KT P6SM VCSH OVC045
     FM221900 28013G21KT 6SM SHRA OVC035
     FM230000 32014G22KT P6SM BKN030=

USA.gov is the U.S. government's official web portal to all federal, state and local government web resources and services.